Time;durP1;ratioP1;P1;durP2;ratioP2;P2;SDS_P1;SDS_P2;PMS_P1;PMS_P2;Temp;Humidity;BMP_temperature;BMP_pressure;BME280_temperature;BME280_humidity;BME280_pressure;Samples;Min_cycle;Max_cycle;Signal;HPM_P1;HPM_P2
2022/04/01 00:00:41;;;;;;;7.27;6.53;;;;;;;0.44;89.97;99038.41;5081752;28;20467;-66
2022/04/01 00:03:09;;;;;;;9.50;6.20;;;;;;;0.32;89.87;99041.88;5083115;28;20520;-66
2022/04/01 00:05:36;;;;;;;6.90;6.20;;;;;;;0.16;89.96;99037.66;5082135;28;20482;-66
2022/04/01 00:08:05;;;;;;;6.35;5.55;;;;;;;0.25;89.92;99038.81;5083653;28;20837;-66
2022/04/01 00:10:32;;;;;;;8.40;6.50;;;;;;;0.25;89.96;99044.09;5082365;28;20237;-66
2022/04/01 00:12:59;;;;;;;8.93;6.43;;;;;;;0.29;90.32;99035.03;5081895;28;20539;-66
2022/04/01 00:15:26;;;;;;;7.63;6.75;;;;;;;0.24;90.25;99042.38;5082436;28;20479;-66
2022/04/01 00:17:53;;;;;;;8.05;6.40;;;;;;;0.21;90.20;99037.38;5082640;28;20189;-66
2022/04/01 00:20:20;;;;;;;7.83;6.30;;;;;;;0.18;90.13;99037.56;5081525;28;20221;-66
2022/04/01 00:22:47;;;;;;;8.65;7.03;;;;;;;0.25;90.00;99036.19;5082182;28;20455;-66
2022/04/01 00:25:16;;;;;;;7.67;6.97;;;;;;;0.14;90.59;99031.69;5082107;28;20652;-66
2022/04/01 00:27:43;;;;;;;7.75;6.63;;;;;;;0.22;90.95;99036.41;5082953;28;20427;-67
2022/04/01 00:30:11;;;;;;;9.23;7.20;;;;;;;0.05;91.54;99028.81;5081065;28;20301;-66
2022/04/01 00:32:38;;;;;;;7.63;6.83;;;;;;;0.26;91.57;99037.03;5081748;28;20474;-67
2022/04/01 00:35:06;;;;;;;8.55;6.40;;;;;;;0.18;91.29;99024.44;5082593;28;20475;-68
2022/04/01 00:37:33;;;;;;;8.97;7.20;;;;;;;0.16;91.04;99036.84;5082056;28;20244;-67
2022/04/01 00:40:00;;;;;;;6.95;6.20;;;;;;;0.06;90.62;99033.16;5082089;28;20483;-68
2022/04/01 00:42:30;;;;;;;10.30;7.88;;;;;;;0.17;95.35;99036.75;5081369;28;20244;-67
2022/04/01 00:44:57;;;;;;;8.37;6.83;;;;;;;0.19;96.87;99039.22;5082303;28;20211;-68
2022/04/01 00:47:24;;;;;;;10.67;6.30;;;;;;;-0.01;96.97;99044.06;5081862;28;20511;-68
2022/04/01 00:49:51;;;;;;;7.53;6.78;;;;;;;0.14;95.75;99050.06;5081499;28;20470;-68
2022/04/01 00:52:21;;;;;;;6.65;5.85;;;;;;;0.18;93.27;99045.44;5081278;28;20643;-69
2022/04/01 00:54:49;;;;;;;9.33;7.90;;;;;;;0.18;91.99;99040.19;5082425;28;20926;-68
2022/04/01 00:57:18;;;;;;;8.63;7.50;;;;;;;0.07;91.50;99038.31;5081967;28;20562;-68
2022/04/01 00:59:47;;;;;;;7.77;6.93;;;;;;;0.07;91.43;99042.69;5080835;28;20484;-67
2022/04/01 01:02:14;;;;;;;6.45;5.75;;;;;;;0.16;91.41;99048.19;5080769;28;20487;-68
2022/04/01 01:04:41;;;;;;;7.10;6.40;;;;;;;0.10;91.58;99047.75;5082169;28;20186;-68
2022/04/01 01:07:08;;;;;;;8.43;6.82;;;;;;;0.12;91.46;99049.34;5080316;28;20479;-68
2022/04/01 01:09:35;;;;;;;7.00;6.40;;;;;;;0.18;91.32;99050.72;5081635;28;20218;-67
2022/04/01 01:12:03;;;;;;;10.60;6.45;;;;;;;0.17;90.90;99049.88;5073633;28;20975;-67
2022/04/01 01:14:31;;;;;;;7.25;6.53;;;;;;;0.24;90.76;99052.06;5081156;28;20237;-68
2022/04/01 01:17:00;;;;;;;7.70;6.07;;;;;;;0.17;90.51;99051.63;5080965;28;20264;-67
2022/04/01 01:19:28;;;;;;;7.18;6.20;;;;;;;0.19;90.49;99052.38;5080972;28;20483;-67
2022/04/01 01:21:56;;;;;;;7.57;6.87;;;;;;;0.07;90.46;99050.56;5080296;28;20233;-68
2022/04/01 01:24:31;;;;;;;8.80;6.33;;;;;;;0.15;90.34;99050.91;5081352;28;20961;-68
2022/04/01 01:26:59;;;;;;;6.57;5.50;;;;;;;0.10;90.54;99059.09;5079640;28;20479;-67
2022/04/01 01:29:28;;;;;;;8.30;6.28;;;;;;;0.12;90.72;99064.25;5080305;28;20232;-68
2022/04/01 01:31:55;;;;;;;8.43;7.60;;;;;;;0.10;90.69;99060.88;5078173;28;20264;-67
2022/04/01 01:34:23;;;;;;;6.70;6.00;;;;;;;0.08;90.64;99052.28;5081065;28;20440;-68
2022/04/01 01:36:50;;;;;;;6.73;6.07;;;;;;;0.06;95.05;99067.31;5080407;28;20487;-68
2022/04/01 01:39:17;;;;;;;7.03;5.97;;;;;;;-0.10;96.01;99035.97;5080810;28;20527;-68
2022/04/01 01:41:46;;;;;;;7.03;6.22;;;;;;;-0.12;96.83;99069.34;5079750;28;20245;-67
2022/04/01 01:44:13;;;;;;;6.05;5.45;;;;;;;-0.07;97.62;99065.50;5080681;28;20237;-68
2022/04/01 01:46:40;;;;;;;8.48;6.03;;;;;;;-0.07;97.98;99062.88;5080646;28;20261;-68
2022/04/01 01:49:07;;;;;;;7.80;6.30;;;;;;;-0.18;95.37;99060.09;5080692;28;20212;-69
2022/04/01 01:57:05;;;;;;;5.05;4.55;;;;;;;0.00;92.42;99068.56;5080090;28;20715;-69
2022/04/01 01:59:33;;;;;;;5.57;4.70;;;;;;;-0.09;92.10;99066.53;5040924;28;20234;-68
2022/04/01 02:02:00;;;;;;;5.47;4.97;;;;;;;-0.19;92.45;99068.94;5080070;28;20233;-69
2022/04/01 02:04:27;;;;;;;5.85;5.03;;;;;;;-0.22;95.32;99080.50;5080952;28;20444;-68
2022/04/01 02:06:54;;;;;;;6.13;5.35;;;;;;;-0.20;93.95;99089.09;5080121;28;20244;-67
2022/04/01 02:09:21;;;;;;;6.93;5.20;;;;;;;-0.11;93.66;99092.06;5079873;28;20220;-68
2022/04/01 02:11:48;;;;;;;6.47;5.87;;;;;;;-0.19;93.68;99074.22;5079609;28;20229;-68
2022/04/01 02:14:16;;;;;;;6.00;5.30;;;;;;;-0.12;93.94;99085.13;5079851;28;20451;-67
2022/04/01 02:16:44;;;;;;;6.25;5.50;;;;;;;-0.14;95.05;99079.13;5079759;28;20498;-67
2022/04/01 02:19:11;;;;;;;5.80;5.30;;;;;;;-0.20;94.75;99083.84;5080385;28;20865;-67
2022/04/01 02:21:39;;;;;;;7.15;6.45;;;;;;;-0.07;94.93;99090.91;5078791;28;20533;-67
2022/04/01 02:24:07;;;;;;;7.20;5.67;;;;;;;-0.11;94.42;99090.28;5080622;28;20268;-68
2022/04/01 02:26:34;;;;;;;6.55;5.88;;;;;;;-0.17;95.30;99088.06;5079580;28;20506;-68
2022/04/01 02:29:03;;;;;;;7.40;5.70;;;;;;;-0.21;95.49;99095.31;5079836;28;20213;-68
2022/04/01 02:31:32;;;;;;;6.43;5.78;;;;;;;-0.23;94.54;99091.09;5079374;28;20487;-69
2022/04/01 02:33:59;;;;;;;6.47;5.82;;;;;;;-0.08;94.00;99102.38;5080398;28;20217;-68
2022/04/01 02:36:25;;;;;;;6.35;5.70;;;;;;;-0.10;93.39;99096.41;5079709;28;20237;-68
2022/04/01 02:38:53;;;;;;;7.25;6.35;;;;;;;-0.14;93.47;99090.50;5080523;28;20263;-69
2022/04/01 02:41:21;;;;;;;7.25;6.55;;;;;;;-0.24;93.63;99095.50;5079004;28;20237;-68
2022/04/01 02:43:48;;;;;;;6.47;5.80;;;;;;;-0.28;93.67;99101.06;5079653;28;20308;-67
2022/04/01 02:46:15;;;;;;;6.45;5.72;;;;;;;-0.39;93.42;99107.00;5079606;28;21035;-69
2022/04/01 02:48:43;;;;;;;10.55;6.70;;;;;;;-0.36;95.55;99100.69;5079632;28;20190;-69
2022/04/01 02:51:09;;;;;;;7.97;6.10;;;;;;;-0.43;97.99;99098.50;5078725;28;20253;-70
2022/04/01 02:53:37;;;;;;;6.10;5.50;;;;;;;-0.41;100.00;99101.03;5080436;28;20213;-69
2022/04/01 02:56:04;;;;;;;6.90;6.25;;;;;;;-0.29;100.00;99102.00;5079187;28;20695;-69
2022/04/01 02:58:30;;;;;;;7.63;6.20;;;;;;;-0.36;100.00;99098.94;5079944;28;20240;-70
2022/04/01 03:00:57;;;;;;;7.45;6.78;;;;;;;-0.33;100.00;99100.50;5078747;28;20591;-68
2022/04/01 03:03:24;;;;;;;6.15;5.55;;;;;;;-0.31;100.00;99096.00;5080107;28;20301;-70
2022/04/01 03:05:53;;;;;;;7.13;6.03;;;;;;;-0.43;100.00;99102.91;5079379;28;20240;-69
2022/04/01 03:08:19;;;;;;;6.65;5.95;;;;;;;-0.30;100.00;99100.31;5080086;28;20186;-70
2022/04/01 03:10:46;;;;;;;7.10;6.37;;;;;;;-0.29;100.00;99108.09;5079250;28;20248;-70
2022/04/01 03:13:13;;;;;;;6.55;5.15;;;;;;;-0.29;100.00;99100.22;5079323;28;20460;-69
2022/04/01 03:15:41;;;;;;;7.10;6.20;;;;;;;-0.34;100.00;99118.06;5079021;28;20228;-70
2022/04/01 03:18:09;;;;;;;7.18;6.50;;;;;;;-0.39;100.00;99115.72;5079546;28;20205;-68
2022/04/01 03:20:37;;;;;;;6.10;5.45;;;;;;;-0.35;100.00;99115.53;5078944;28;20928;-68
2022/04/01 03:23:06;;;;;;;7.75;5.63;;;;;;;-0.38;100.00;99116.59;5079889;28;20236;-68
2022/04/01 03:25:33;;;;;;;7.05;6.25;;;;;;;-0.23;100.00;99119.97;5079284;28;20313;-68
2022/04/01 03:28:02;;;;;;;6.38;5.78;;;;;;;-0.40;100.00;99129.81;5078850;28;20217;-68
2022/04/01 03:30:29;;;;;;;9.73;6.10;;;;;;;-0.37;100.00;99126.13;5081461;28;20233;-68
2022/04/01 03:32:56;;;;;;;6.45;5.75;;;;;;;-0.35;100.00;99120.78;5067582;28;20475;-68
2022/04/01 03:35:24;;;;;;;7.40;6.63;;;;;;;-0.36;100.00;99127.81;5068863;28;20612;-68
2022/04/01 03:37:51;;;;;;;8.05;5.65;;;;;;;-0.38;100.00;99127.91;5083606;28;20192;-68
2022/04/01 03:40:21;;;;;;;7.50;6.80;;;;;;;-0.51;100.00;99127.00;5078147;28;20749;-68
2022/04/01 03:42:51;;;;;;;7.15;6.07;;;;;;;-0.47;100.00;99119.78;5063184;28;20225;-68
2022/04/01 03:45:18;;;;;;;6.40;5.67;;;;;;;-0.30;100.00;99129.22;5064603;28;20214;-67
2022/04/01 03:47:52;;;;;;;7.53;6.68;;;;;;;-0.31;100.00;99128.38;5083573;28;20472;-68
2022/04/01 03:50:25;;;;;;;6.57;5.90;;;;;;;-0.33;100.00;99130.25;5082290;28;20209;-67
2022/04/01 03:52:53;;;;;;;6.18;5.30;;;;;;;-0.36;100.00;99134.84;5083421;28;20525;-68
2022/04/01 03:55:24;;;;;;;6.43;5.83;;;;;;;-0.35;100.00;99140.00;5080721;28;20252;-70
2022/04/01 03:57:52;;;;;;;6.93;5.90;;;;;;;-0.49;100.00;99133.00;5082792;28;20443;-70
2022/04/01 04:00:19;;;;;;;6.90;6.22;;;;;;;-0.53;100.00;99138.56;5081977;28;20582;-68
2022/04/01 04:02:47;;;;;;;6.10;5.15;;;;;;;-0.51;100.00;99128.81;5083113;28;20218;-69
2022/04/01 04:05:13;;;;;;;7.82;5.05;;;;;;;-0.41;100.00;99133.38;5082106;28;20226;-69
2022/04/01 04:07:41;;;;;;;5.70;5.10;;;;;;;-0.48;99.56;99132.06;5082995;28;20197;-68
2022/04/01 04:10:09;;;;;;;6.13;4.90;;;;;;;-0.58;99.19;99139.69;5081364;28;20454;-69
2022/04/01 04:12:38;;;;;;;6.30;4.93;;;;;;;-0.54;98.84;99140.34;5043053;28;20207;-68
2022/04/01 04:15:07;;;;;;;6.78;5.65;;;;;;;-0.47;98.61;99139.03;5058712;28;20731;-68
2022/04/01 04:17:44;;;;;;;5.85;5.25;;;;;;;-0.68;98.55;99145.63;5068908;28;20226;-69
2022/04/01 04:20:13;;;;;;;7.00;5.60;;;;;;;-0.71;98.81;99153.69;5075801;28;20221;-66
2022/04/01 04:22:50;;;;;;;8.18;6.40;;;;;;;-0.55;98.94;99149.16;5075670;28;20297;-71
2022/04/01 04:25:22;;;;;;;8.50;5.90;;;;;;;-0.48;99.02;99145.22;5068794;28;20202;-73
2022/04/01 04:27:52;;;;;;;7.45;5.82;;;;;;;-0.60;98.85;99146.81;5062798;28;20215;-72
2022/04/01 04:30:22;;;;;;;6.30;5.43;;;;;;;-0.58;98.75;99152.81;5068717;28;20221;-73
2022/04/01 04:32:54;;;;;;;6.85;5.85;;;;;;;-0.61;98.70;99163.53;5081967;28;20459;-73
2022/04/01 04:35:22;;;;;;;7.40;6.35;;;;;;;-0.65;100.00;99163.81;5067679;28;20450;-66
2022/04/01 04:37:52;;;;;;;6.95;6.35;;;;;;;-0.70;100.00;99160.63;5082802;28;20294;-74
2022/04/01 04:40:19;;;;;;;8.48;5.65;;;;;;;-0.54;100.00;99163.13;5080418;28;20218;-73
2022/04/01 04:42:47;;;;;;;7.45;5.93;;;;;;;-0.55;100.00;99166.72;5081674;28;20206;-73
2022/04/01 04:45:17;;;;;;;6.50;5.90;;;;;;;-0.60;100.00;99164.38;5080989;28;20210;-73
2022/04/01 04:47:44;;;;;;;6.03;5.40;;;;;;;-0.51;100.00;99168.19;5079979;28;20458;-74
2022/04/01 04:50:11;;;;;;;7.65;5.75;;;;;;;-0.58;100.00;99178.22;5068317;28;20232;-73
2022/04/01 04:52:40;;;;;;;6.38;5.65;;;;;;;-0.63;100.00;99175.88;5081682;28;20226;-75
2022/04/01 04:55:09;;;;;;;6.75;6.15;;;;;;;-0.66;100.00;99177.84;5079503;28;20797;-74
2022/04/01 04:57:36;;;;;;;10.47;6.83;;;;;;;-0.50;100.00;99180.38;5081905;28;20201;-74
2022/04/01 05:00:05;;;;;;;8.52;6.50;;;;;;;-0.56;100.00;99184.22;5080604;28;20444;-74
2022/04/01 05:02:41;;;;;;;8.27;7.03;;;;;;;-0.63;100.00;99183.75;5080383;28;20229;-74
2022/04/01 05:05:09;;;;;;;8.23;6.68;;;;;;;-0.47;99.83;99191.53;5081070;28;20282;-74
2022/04/01 05:07:45;;;;;;;8.35;6.22;;;;;;;-0.73;99.40;99184.44;5081711;28;20269;-74
2022/04/01 05:10:16;;;;;;;7.53;6.20;;;;;;;-0.60;99.35;99201.13;5080798;28;20228;-75
2022/04/01 05:12:51;;;;;;;7.70;6.90;;;;;;;-0.47;99.17;99215.16;5081644;28;20868;-73
2022/04/01 05:15:20;;;;;;;9.77;6.63;;;;;;;-0.55;98.68;99208.72;5077436;28;20869;-74
2022/04/01 05:17:54;;;;;;;7.68;6.32;;;;;;;-0.34;99.00;99204.72;5079053;28;20194;-73
2022/04/01 05:20:24;;;;;;;8.17;6.53;;;;;;;-0.60;98.40;99209.81;5079472;28;20202;-73
2022/04/01 05:22:59;;;;;;;8.75;6.82;;;;;;;-0.55;99.01;99213.97;5080248;28;20451;-74
2022/04/01 05:25:29;;;;;;;12.18;7.45;;;;;;;-0.45;99.14;99215.91;5056316;28;20205;-68
2022/04/01 05:28:02;;;;;;;7.90;6.78;;;;;;;-0.44;98.61;99222.00;5075664;28;20254;-69
2022/04/01 05:30:30;;;;;;;7.37;6.20;;;;;;;-0.58;98.47;99220.22;5079437;28;20264;-68
2022/04/01 05:33:01;;;;;;;8.77;6.47;;;;;;;-0.61;98.35;99226.53;5081196;28;20471;-68
2022/04/01 05:35:30;;;;;;;7.38;6.45;;;;;;;-0.56;98.59;99226.22;5079907;28;20574;-69
2022/04/01 05:37:59;;;;;;;6.75;6.03;;;;;;;-0.65;99.03;99224.19;5062263;28;20225;-68
2022/04/01 05:40:27;;;;;;;7.82;6.80;;;;;;;-0.57;98.98;99235.06;5060236;28;20913;-72
2022/04/01 05:42:55;;;;;;;10.75;7.57;;;;;;;-0.51;98.65;99246.94;5060821;28;20242;-71
2022/04/01 05:45:25;;;;;;;6.65;5.90;;;;;;;-0.62;98.20;99222.22;5059962;28;20220;-68
2022/04/01 05:47:51;;;;;;;9.70;8.20;;;;;;;-0.51;98.16;99255.66;5060613;28;20195;-69
2022/04/01 05:50:20;;;;;;;8.95;6.70;;;;;;;-0.48;98.05;99250.22;5059609;28;20233;-69
2022/04/01 05:52:48;;;;;;;10.05;8.35;;;;;;;-0.41;97.73;99245.44;5060474;28;20240;-68
2022/04/01 05:55:15;;;;;;;8.90;7.40;;;;;;;-0.50;97.58;99253.91;5060016;28;20254;-68
2022/04/01 05:57:42;;;;;;;10.88;8.13;;;;;;;-0.46;97.87;99255.38;5060829;28;20637;-68
2022/04/01 06:00:12;;;;;;;10.27;7.95;;;;;;;-0.52;97.76;99256.63;5059477;28;20656;-68
2022/04/01 06:02:54;;;;;;;11.57;7.80;;;;;;;-0.50;97.85;99267.03;5060247;28;20238;-67
2022/04/01 06:05:27;;;;;;;8.68;7.38;;;;;;;-0.59;97.85;99260.53;5060141;28;20205;-68
2022/04/01 06:08:03;;;;;;;9.05;7.40;;;;;;;-0.34;98.36;99266.91;5060968;28;20191;-69
2022/04/01 06:10:39;;;;;;;10.48;7.50;;;;;;;-0.41;97.58;99264.66;5059403;28;20263;-69
2022/04/01 06:13:15;;;;;;;8.52;7.68;;;;;;;-0.50;97.31;99265.25;5060496;28;20213;-68
2022/04/01 06:15:48;;;;;;;14.10;9.02;;;;;;;-0.57;97.61;99264.78;5059533;28;20237;-68
2022/04/01 06:18:21;;;;;;;8.03;6.97;;;;;;;-0.55;97.53;99267.31;5059925;28;20602;-67
2022/04/01 06:20:50;;;;;;;8.27;7.47;;;;;;;-0.67;98.04;99274.13;5059181;28;20491;-68
2022/04/01 06:23:25;;;;;;;9.00;7.72;;;;;;;-0.67;98.33;99284.66;5059698;28;20471;-69
2022/04/01 06:25:57;;;;;;;11.52;8.07;;;;;;;-0.55;98.31;99277.81;5059782;28;20229;-68
2022/04/01 06:28:25;;;;;;;10.35;7.90;;;;;;;-0.49;98.73;99285.28;5059358;28;20191;-68
2022/04/01 06:30:54;;;;;;;11.50;8.50;;;;;;;-0.59;98.43;99286.78;5059676;28;20237;-68
2022/04/01 06:33:29;;;;;;;9.30;7.82;;;;;;;-0.58;98.33;99286.69;5059943;28;20440;-67
2022/04/01 06:36:00;;;;;;;9.80;8.27;;;;;;;-0.51;97.97;99299.47;5059875;28;20653;-68
2022/04/01 06:38:36;;;;;;;8.30;7.35;;;;;;;-0.48;97.72;99296.66;5059307;28;20888;-68
2022/04/01 06:41:06;;;;;;;11.33;8.23;;;;;;;-0.59;97.11;99306.03;5059655;28;20234;-68
2022/04/01 06:43:34;;;;;;;15.82;8.32;;;;;;;-0.51;96.96;99295.03;5059419;28;20484;-67
2022/04/01 06:46:01;;;;;;;8.60;7.65;;;;;;;-0.30;96.61;99294.66;5059568;28;20252;-67
2022/04/01 06:48:28;;;;;;;9.88;8.32;;;;;;;-0.25;96.17;99296.06;5059328;28;20668;-69
2022/04/01 06:50:55;;;;;;;9.02;8.00;;;;;;;-0.26;95.96;99309.28;5058837;28;20335;-68
2022/04/01 06:53:24;;;;;;;9.05;8.00;;;;;;;-0.13;95.50;99314.63;5059967;28;20211;-68
2022/04/01 06:55:50;;;;;;;10.10;7.80;;;;;;;-0.18;95.43;99298.31;5059518;28;20234;-68
2022/04/01 06:58:17;;;;;;;11.18;8.95;;;;;;;-0.11;95.59;99307.50;5059746;28;20277;-68
2022/04/01 07:00:44;;;;;;;9.38;7.28;;;;;;;-0.06;95.75;99308.06;5059026;28;20304;-68
2022/04/01 07:03:12;;;;;;;10.90;8.30;;;;;;;-0.26;95.92;99319.78;5059282;28;20218;-68
2022/04/01 07:05:41;;;;;;;9.82;8.32;;;;;;;-0.49;94.65;99308.91;5062324;28;20782;-68
2022/04/01 07:08:08;;;;;;;11.52;8.13;;;;;;;-0.18;94.99;99312.28;5064307;28;20226;-68
2022/04/01 07:10:38;;;;;;;11.15;8.52;;;;;;;-0.03;94.76;99315.75;5063354;28;20922;-68
2022/04/01 07:13:05;;;;;;;16.17;7.68;;;;;;;-0.17;94.39;99307.88;5064046;28;20206;-69
2022/04/01 07:15:32;;;;;;;8.45;7.20;;;;;;;-0.36;94.35;99319.53;5062152;28;20233;-68
2022/04/01 07:17:59;;;;;;;10.82;6.80;;;;;;;-0.48;94.23;99315.03;5064098;28;20194;-68
2022/04/01 07:20:26;;;;;;;9.00;7.35;;;;;;;-0.57;95.81;99319.91;5062882;28;20377;-68
2022/04/01 07:22:54;;;;;;;8.55;7.63;;;;;;;-0.34;96.59;99329.94;5063509;28;20258;-69
2022/04/01 07:25:22;;;;;;;10.88;7.68;;;;;;;-0.22;96.55;99323.94;5062519;28;20206;-68
2022/04/01 07:27:50;;;;;;;9.40;7.72;;;;;;;-0.18;96.11;99327.22;5062660;28;20210;-68
2022/04/01 07:30:17;;;;;;;9.13;7.03;;;;;;;-0.20;95.83;99322.88;5062519;28;20752;-69
2022/04/01 07:32:44;;;;;;;8.65;7.13;;;;;;;-0.07;95.71;99330.88;5063440;28;20214;-68
2022/04/01 07:35:14;;;;;;;10.23;7.40;;;;;;;-0.08;94.87;99328.34;5063293;28;20198;-67
2022/04/01 07:37:42;;;;;;;8.98;7.97;;;;;;;-0.05;95.24;99336.03;5063134;28;20237;-68
2022/04/01 07:40:11;;;;;;;8.63;7.65;;;;;;;-0.21;94.58;99331.72;5062174;28;20862;-69
2022/04/01 07:42:38;;;;;;;6.40;5.70;;;;;;;-0.18;94.28;99338.56;5062737;28;20230;-69
2022/04/01 07:45:07;;;;;;;14.10;8.80;;;;;;;0.01;94.20;99333.00;5062848;28;20248;-69
2022/04/01 07:47:35;;;;;;;7.80;6.23;;;;;;;-0.41;93.96;99338.19;5062830;28;20523;-69
2022/04/01 07:50:03;;;;;;;11.05;7.75;;;;;;;-0.30;94.10;99345.41;5062750;28;20453;-68
2022/04/01 07:52:32;;;;;;;8.85;6.90;;;;;;;-0.10;94.39;99336.31;5061983;28;20293;-69
2022/04/01 07:54:59;;;;;;;9.60;8.50;;;;;;;0.01;94.35;99340.06;5063704;28;20686;-69
2022/04/01 07:57:26;;;;;;;13.63;7.67;;;;;;;-0.11;93.84;99345.13;5062377;28;20316;-68
2022/04/01 07:59:53;;;;;;;15.82;9.57;;;;;;;-0.34;94.68;99343.09;5062734;28;20445;-68
2022/04/01 08:02:21;;;;;;;8.73;7.25;;;;;;;-0.35;94.21;99346.63;5062569;28;20238;-69
2022/04/01 08:04:48;;;;;;;9.32;8.30;;;;;;;-0.28;93.88;99359.31;5062241;28;20211;-69
2022/04/01 08:07:15;;;;;;;9.45;8.23;;;;;;;-0.28;93.59;99355.81;5061946;28;20234;-70
2022/04/01 08:09:41;;;;;;;14.33;8.97;;;;;;;-0.07;95.04;99354.50;5062656;28;20207;-70
2022/04/01 08:12:09;;;;;;;10.38;8.25;;;;;;;0.15;96.06;99374.19;5062248;28;20469;-69
2022/04/01 08:14:37;;;;;;;16.92;7.45;;;;;;;-0.20;93.94;99371.97;5061889;28;20214;-68
2022/04/01 08:17:04;;;;;;;10.38;8.32;;;;;;;-0.26;93.57;99367.94;5060938;28;20238;-67
2022/04/01 08:19:32;;;;;;;10.02;7.30;;;;;;;-0.29;93.25;99377.78;5061907;28;20218;-70
2022/04/01 08:22:00;;;;;;;11.77;8.90;;;;;;;-0.11;94.69;99373.19;5061419;28;20240;-70
2022/04/01 08:24:26;;;;;;;10.18;8.40;;;;;;;0.07;94.86;99379.94;5062119;28;20206;-71
2022/04/01 08:26:53;;;;;;;11.38;7.88;;;;;;;-0.02;94.17;99389.22;5062349;28;20248;-70
2022/04/01 08:29:21;;;;;;;12.27;9.13;;;;;;;-0.01;93.85;99387.44;5061493;28;20259;-70
2022/04/01 08:31:47;;;;;;;9.95;7.93;;;;;;;-0.12;93.17;99385.47;5061951;28;20230;-70
2022/04/01 08:34:14;;;;;;;10.82;7.93;;;;;;;0.02;92.89;99389.88;5062982;28;20206;-70
2022/04/01 08:36:42;;;;;;;15.73;9.13;;;;;;;0.23;92.67;99395.59;5061905;28;20230;-71
2022/04/01 08:39:09;;;;;;;7.95;7.00;;;;;;;-0.14;92.55;99394.38;5062173;28;20187;-70
2022/04/01 08:41:36;;;;;;;13.30;7.73;;;;;;;-0.11;93.23;99395.03;5061177;28;20234;-70
2022/04/01 08:44:03;;;;;;;10.10;8.73;;;;;;;0.14;92.71;99401.41;5061355;28;21098;-70
2022/04/01 08:46:31;;;;;;;10.73;8.00;;;;;;;0.36;92.24;99408.78;5061390;28;20576;-70
2022/04/01 08:48:58;;;;;;;10.60;7.38;;;;;;;0.10;91.05;99406.00;5061502;28;20433;-70
2022/04/01 08:51:26;;;;;;;13.85;8.60;;;;;;;0.44;90.86;99416.22;5061692;28;20230;-70
2022/04/01 08:53:54;;;;;;;9.03;7.70;;;;;;;0.11;90.76;99414.75;5061779;28;20210;-70
2022/04/01 08:56:21;;;;;;;9.40;8.20;;;;;;;0.24;92.78;99418.28;5060970;28;20538;-70
2022/04/01 08:58:48;;;;;;;9.43;7.40;;;;;;;0.42;92.61;99412.81;5061229;28;20213;-70
2022/04/01 09:01:16;;;;;;;8.87;6.80;;;;;;;0.40;90.25;99420.81;5061711;28;20480;-71
2022/04/01 09:03:43;;;;;;;9.20;6.30;;;;;;;0.45;89.22;99420.53;5061904;28;20923;-71
2022/04/01 09:06:10;;;;;;;8.50;6.05;;;;;;;0.72;88.53;99426.66;5061135;28;20472;-70
2022/04/01 09:08:38;;;;;;;10.30;8.45;;;;;;;0.69;88.44;99426.00;5061490;28;20198;-72
2022/04/01 09:11:08;;;;;;;10.10;7.43;;;;;;;0.81;87.79;99437.53;5061174;28;20265;-71
2022/04/01 09:13:46;;;;;;;11.10;6.83;;;;;;;0.56;87.58;99444.38;5061362;28;21034;-72
2022/04/01 09:16:24;;;;;;;8.80;7.27;;;;;;;0.72;87.97;99458.22;5060993;28;20479;-73
2022/04/01 09:18:53;;;;;;;7.80;7.00;;;;;;;0.47;87.77;99456.31;5060938;28;20512;-71
2022/04/01 09:21:25;;;;;;;9.65;7.10;;;;;;;0.64;87.53;99463.13;5060978;28;20465;-72
2022/04/01 09:23:52;;;;;;;7.65;5.82;;;;;;;0.33;86.90;99472.06;5060748;28;20260;-71
2022/04/01 09:26:22;;;;;;;8.70;6.17;;;;;;;0.25;88.13;99462.06;5060274;28;20264;-72
2022/04/01 09:28:52;;;;;;;8.63;6.40;;;;;;;0.50;88.86;99465.78;5059971;28;20477;-72
2022/04/01 09:31:20;;;;;;;7.88;6.43;;;;;;;0.46;88.30;99461.66;5059288;28;20234;-71
2022/04/01 09:33:49;;;;;;;7.47;6.33;;;;;;;0.87;88.08;99469.56;5060925;28;20209;-72
2022/04/01 09:36:17;;;;;;;9.40;7.07;;;;;;;0.70;87.93;99475.91;5060628;28;20473;-72
2022/04/01 09:39:04;;;;;;;7.23;5.83;;;;;;;0.83;86.68;99470.69;5061059;28;20422;-72
2022/04/01 09:41:38;;;;;;;10.00;7.63;;;;;;;1.15;86.45;99474.81;5059742;28;20503;-73
2022/04/01 09:44:09;;;;;;;8.00;7.07;;;;;;;1.20;86.54;99478.88;5058878;28;20564;-72
2022/04/01 09:46:42;;;;;;;8.87;6.60;;;;;;;0.83;86.80;99485.63;5060544;28;21016;-71
2022/04/01 09:49:09;;;;;;;10.77;7.00;;;;;;;0.62;86.75;99490.47;5060868;28;20532;-72
2022/04/01 09:51:36;;;;;;;7.40;6.55;;;;;;;0.62;87.89;99477.31;5059564;28;20864;-73
2022/04/01 09:54:04;;;;;;;9.30;6.77;;;;;;;0.45;87.28;99487.13;5060614;28;20233;-71
2022/04/01 09:56:49;;;;;;;7.83;7.00;;;;;;;0.64;88.46;99486.78;5059972;28;20489;-72
2022/04/01 09:59:16;;;;;;;7.07;6.27;;;;;;;0.49;87.57;99496.50;5060143;28;20448;-70
2022/04/01 10:01:45;;;;;;;7.73;6.93;;;;;;;0.84;87.96;99490.81;5060201;28;20487;-72
2022/04/01 10:04:12;;;;;;;7.87;6.43;;;;;;;0.60;87.52;99487.09;5060668;28;20449;-71
2022/04/01 10:06:39;;;;;;;8.90;6.90;;;;;;;0.49;87.35;99524.59;5060021;28;20488;-71
2022/04/01 10:09:09;;;;;;;7.67;5.67;;;;;;;0.94;86.79;99486.66;5060613;28;20445;-70
2022/04/01 10:11:37;;;;;;;8.47;6.20;;;;;;;1.17;86.52;99497.50;5059435;28;20567;-71
2022/04/01 10:14:08;;;;;;;9.80;6.13;;;;;;;0.88;86.00;99496.72;5060193;28;20460;-71
2022/04/01 10:16:36;;;;;;;8.03;6.23;;;;;;;0.94;87.65;99491.91;5060269;28;20476;-70
2022/04/01 10:19:13;;;;;;;7.17;6.47;;;;;;;0.94;89.42;99507.72;5060353;28;20504;-71
2022/04/01 10:21:44;;;;;;;9.97;6.97;;;;;;;1.37;88.02;99492.69;5058384;28;20853;-70
2022/04/01 10:24:26;;;;;;;10.10;6.73;;;;;;;1.22;85.68;99489.31;5060398;28;20448;-70
2022/04/01 10:27:07;;;;;;;6.40;5.40;;;;;;;0.89;84.95;99498.44;5059940;28;20511;-70
2022/04/01 10:29:36;;;;;;;11.13;7.37;;;;;;;1.20;85.28;99502.56;5059777;28;20493;-69
2022/04/01 10:32:30;;;;;;;11.03;6.70;;;;;;;1.36;84.56;99498.94;5059904;28;20479;-69
2022/04/01 10:34:59;;;;;;;11.63;7.53;;;;;;;1.27;83.91;99498.59;5002599;28;20472;-69
2022/04/01 10:37:28;;;;;;;11.10;7.20;;;;;;;1.10;83.21;99496.19;5060003;28;20496;-71
2022/04/01 10:39:59;;;;;;;6.87;6.20;;;;;;;1.53;83.14;99495.16;5059498;28;20437;-69
2022/04/01 10:42:27;;;;;;;9.50;5.90;;;;;;;1.42;82.05;99506.41;5056977;28;20568;-68
2022/04/01 10:44:57;;;;;;;11.47;6.40;;;;;;;1.60;81.68;99496.47;5056480;28;20849;-68
2022/04/01 10:51:36;;;;;;;10.00;6.20;;;;;;;1.42;80.12;99496.72;5060085;28;20474;-68
2022/04/01 10:53:36;;;;;;;7.10;6.03;;;;;;;1.98;77.71;99487.75;5058784;28;20494;-68
2022/04/01 10:56:31;;;;;;;6.43;5.77;;;;;;;1.78;74.78;99503.13;5059658;28;20496;-68
2022/04/01 10:59:03;;;;;;;5.63;4.40;;;;;;;1.88;73.64;99500.72;5059461;28;20476;-67
2022/04/01 11:01:32;;;;;;;9.70;5.60;;;;;;;2.23;73.55;99500.94;5059006;28;20476;-67
2022/04/01 11:04:03;;;;;;;7.20;4.50;;;;;;;2.29;73.03;99512.84;5059847;28;20516;-67
2022/04/01 11:06:29;;;;;;;8.20;3.97;;;;;;;1.94;68.46;99512.63;5059505;28;20491;-67
2022/04/01 11:08:57;;;;;;;6.20;4.33;;;;;;;2.01;68.53;99506.00;5060135;28;20473;-69
2022/04/01 11:11:23;;;;;;;5.43;4.83;;;;;;;2.02;67.22;99505.06;5059217;28;20494;-67
2022/04/01 11:14:04;;;;;;;4.40;3.90;;;;;;;2.30;68.33;99500.53;5059335;28;20455;-68
2022/04/01 11:16:48;;;;;;;8.90;4.60;;;;;;;2.39;66.22;99503.34;5059731;28;20491;-71
2022/04/01 11:19:16;;;;;;;4.13;3.47;;;;;;;2.25;64.98;99492.94;5059905;28;20529;-71
2022/04/01 11:21:44;;;;;;;4.50;4.00;;;;;;;2.06;64.61;99504.72;5058744;28;20493;-69
2022/04/01 11:24:25;;;;;;;5.20;4.10;;;;;;;2.34;64.91;99505.47;5059912;28;20488;-70
2022/04/01 11:26:52;;;;;;;5.00;4.17;;;;;;;2.55;65.88;99507.56;5058864;28;20478;-72
2022/04/01 11:29:21;;;;;;;8.30;4.40;;;;;;;2.49;64.50;99510.66;5059473;28;20471;-71
2022/04/01 11:31:50;;;;;;;5.37;3.80;;;;;;;2.48;64.47;99506.31;5058641;28;20823;-72
2022/04/01 11:34:16;;;;;;;5.90;4.57;;;;;;;2.34;63.68;99531.84;5059742;28;20552;-70
2022/04/01 11:36:43;;;;;;;7.90;3.90;;;;;;;2.29;64.14;99515.50;5059516;28;20484;-71
2022/04/01 11:39:16;;;;;;;5.80;4.00;;;;;;;2.72;65.16;99514.28;5060095;28;20444;-71
2022/04/01 11:41:47;;;;;;;4.70;3.57;;;;;;;2.78;63.88;99521.78;5059053;28;20587;-71
2022/04/01 11:44:16;;;;;;;3.60;3.00;;;;;;;2.51;62.12;99521.94;5058506;28;20914;-70
2022/04/01 11:46:43;;;;;;;5.07;3.93;;;;;;;2.25;61.94;99504.31;5059541;28;20540;-68
2022/04/01 11:49:11;;;;;;;4.03;3.43;;;;;;;2.48;63.24;99519.50;5059634;28;20433;-69
2022/04/01 11:51:39;;;;;;;8.70;4.07;;;;;;;2.66;63.43;99515.59;5061598;28;20483;-70